sensor_id;sensor_type;location;lat;lon;timestamp;pressure;altitude;pressure_sealevel;temperature;humidity
75656;BME280;64252;51.094;13.714;2024-03-25T00:00:12;98806.28;;;13.09;50.45
75656;BME280;64252;51.094;13.714;2024-03-25T00:02:39;98806.69;;;13.28;50.22
75656;BME280;64252;51.094;13.714;2024-03-25T00:05:05;98815.53;;;13.87;48.77
75656;BME280;64252;51.094;13.714;2024-03-25T00:07:32;98810.78;;;14.10;48.12
75656;BME280;64252;51.094;13.714;2024-03-25T00:09:58;98815.41;;;13.33;50.60
75656;BME280;64252;51.094;13.714;2024-03-25T00:12:25;98819.00;;;13.21;50.47
75656;BME280;64252;51.094;13.714;2024-03-25T00:14:51;98822.16;;;13.23;50.72
75656;BME280;64252;51.094;13.714;2024-03-25T00:17:17;98826.41;;;12.50;52.14
75656;BME280;64252;51.094;13.714;2024-03-25T00:19:42;98833.69;;;12.84;51.93
75656;BME280;64252;51.094;13.714;2024-03-25T00:22:08;98821.19;;;12.65;52.44
75656;BME280;64252;51.094;13.714;2024-03-25T00:24:34;98834.88;;;12.50;52.65
75656;BME280;64252;51.094;13.714;2024-03-25T00:26:59;98837.38;;;13.29;51.83
75656;BME280;64252;51.094;13.714;2024-03-25T00:29:25;98838.13;;;12.32;53.43
75656;BME280;64252;51.094;13.714;2024-03-25T00:31:50;98835.59;;;12.54;53.23
75656;BME280;64252;51.094;13.714;2024-03-25T00:34:15;98847.44;;;13.17;52.11
75656;BME280;64252;51.094;13.714;2024-03-25T00:36:41;98833.44;;;13.27;51.61
75656;BME280;64252;51.094;13.714;2024-03-25T00:39:06;98842.09;;;13.36;51.49
75656;BME280;64252;51.094;13.714;2024-03-25T00:41:32;98835.50;;;12.58;53.59
75656;BME280;64252;51.094;13.714;2024-03-25T00:43:58;98838.47;;;13.03;52.44
75656;BME280;64252;51.094;13.714;2024-03-25T00:46:23;98825.44;;;13.05;51.54
75656;BME280;64252;51.094;13.714;2024-03-25T00:48:49;98834.63;;;13.09;51.81
75656;BME280;64252;51.094;13.714;2024-03-25T00:51:14;98832.19;;;12.79;52.81
75656;BME280;64252;51.094;13.714;2024-03-25T00:53:40;98828.84;;;12.32;53.42
75656;BME280;64252;51.094;13.714;2024-03-25T00:56:05;98831.81;;;13.26;51.92
75656;BME280;64252;51.094;13.714;2024-03-25T00:58:31;98839.59;;;12.73;52.79
75656;BME280;64252;51.094;13.714;2024-03-25T01:00:56;98834.28;;;12.91;52.59
75656;BME280;64252;51.094;13.714;2024-03-25T01:03:22;98831.13;;;12.89;53.09
75656;BME280;64252;51.094;13.714;2024-03-25T01:05:47;98828.81;;;12.84;53.17
75656;BME280;64252;51.094;13.714;2024-03-25T01:08:14;98830.56;;;13.10;52.68
75656;BME280;64252;51.094;13.714;2024-03-25T01:10:40;98835.28;;;12.85;53.26
75656;BME280;64252;51.094;13.714;2024-03-25T01:13:05;98826.75;;;12.68;54.00
75656;BME280;64252;51.094;13.714;2024-03-25T01:15:31;98823.66;;;12.95;53.27
75656;BME280;64252;51.094;13.714;2024-03-25T01:17:56;98830.66;;;12.91;53.81
75656;BME280;64252;51.094;13.714;2024-03-25T01:20:22;98833.31;;;12.98;54.15
75656;BME280;64252;51.094;13.714;2024-03-25T01:22:47;98836.59;;;13.29;52.88
75656;BME280;64252;51.094;13.714;2024-03-25T01:25:13;98842.19;;;11.96;55.65
75656;BME280;64252;51.094;13.714;2024-03-25T01:27:38;98846.31;;;12.47;54.71
75656;BME280;64252;51.094;13.714;2024-03-25T01:30:04;98847.34;;;11.81;56.37
75656;BME280;64252;51.094;13.714;2024-03-25T01:32:30;98842.75;;;12.43;54.44
75656;BME280;64252;51.094;13.714;2024-03-25T01:34:55;98842.44;;;12.89;53.52
75656;BME280;64252;51.094;13.714;2024-03-25T01:37:21;98842.38;;;12.41;53.36
75656;BME280;64252;51.094;13.714;2024-03-25T01:39:46;98854.03;;;12.26;54.13
75656;BME280;64252;51.094;13.714;2024-03-25T01:42:13;98856.66;;;11.98;54.04
75656;BME280;64252;51.094;13.714;2024-03-25T01:44:39;98859.66;;;12.46;53.35
75656;BME280;64252;51.094;13.714;2024-03-25T01:47:05;98870.19;;;13.30;51.47
75656;BME280;64252;51.094;13.714;2024-03-25T01:49:31;98877.88;;;12.97;52.20
75656;BME280;64252;51.094;13.714;2024-03-25T01:51:57;98866.56;;;12.25;53.65
75656;BME280;64252;51.094;13.714;2024-03-25T01:54:23;98877.28;;;12.54;53.64
75656;BME280;64252;51.094;13.714;2024-03-25T01:56:49;98870.75;;;12.57;53.26
75656;BME280;64252;51.094;13.714;2024-03-25T01:59:16;98872.31;;;12.58;53.07
75656;BME280;64252;51.094;13.714;2024-03-25T02:01:45;98875.53;;;12.04;53.79
75656;BME280;64252;51.094;13.714;2024-03-25T02:04:12;98878.38;;;12.04;54.04
75656;BME280;64252;51.094;13.714;2024-03-25T02:06:40;98881.50;;;11.90;54.44
75656;BME280;64252;51.094;13.714;2024-03-25T02:09:07;98880.56;;;12.68;52.91
75656;BME280;64252;51.094;13.714;2024-03-25T02:11:33;98879.19;;;12.93;52.16
75656;BME280;64252;51.094;13.714;2024-03-25T02:13:58;98882.03;;;12.41;53.50
75656;BME280;64252;51.094;13.714;2024-03-25T02:16:24;98872.00;;;12.36;53.80
75656;BME280;64252;51.094;13.714;2024-03-25T02:18:50;98884.00;;;13.12;52.36
75656;BME280;64252;51.094;13.714;2024-03-25T02:21:16;98879.50;;;12.62;53.61
75656;BME280;64252;51.094;13.714;2024-03-25T02:23:44;98888.78;;;13.15;51.89
75656;BME280;64252;51.094;13.714;2024-03-25T02:26:10;98880.97;;;13.19;52.14
75656;BME280;64252;51.094;13.714;2024-03-25T02:28:36;98890.59;;;13.05;52.22
75656;BME280;64252;51.094;13.714;2024-03-25T02:31:01;98887.78;;;12.89;52.87
75656;BME280;64252;51.094;13.714;2024-03-25T02:33:26;98883.94;;;12.63;53.42
75656;BME280;64252;51.094;13.714;2024-03-25T02:35:52;98891.19;;;12.28;54.25
75656;BME280;64252;51.094;13.714;2024-03-25T02:38:18;98895.19;;;12.11;55.17
75656;BME280;64252;51.094;13.714;2024-03-25T02:40:44;98886.84;;;12.60;54.15
75656;BME280;64252;51.094;13.714;2024-03-25T02:43:10;98889.34;;;12.90;53.66
75656;BME280;64252;51.094;13.714;2024-03-25T02:45:36;98899.81;;;12.93;53.14
75656;BME280;64252;51.094;13.714;2024-03-25T02:48:02;98892.25;;;12.35;55.09
75656;BME280;64252;51.094;13.714;2024-03-25T02:50:27;98906.06;;;12.68;54.87
75656;BME280;64252;51.094;13.714;2024-03-25T02:52:53;98903.88;;;12.92;53.66
75656;BME280;64252;51.094;13.714;2024-03-25T02:55:18;98913.50;;;13.31;53.18
75656;BME280;64252;51.094;13.714;2024-03-25T02:57:44;98911.56;;;13.11;53.38
75656;BME280;64252;51.094;13.714;2024-03-25T03:00:10;98908.91;;;12.32;55.63
75656;BME280;64252;51.094;13.714;2024-03-25T03:02:35;98914.50;;;12.88;54.40
75656;BME280;64252;51.094;13.714;2024-03-25T03:05:01;98915.78;;;12.31;55.23
75656;BME280;64252;51.094;13.714;2024-03-25T03:07:28;98923.19;;;12.97;53.77
75656;BME280;64252;51.094;13.714;2024-03-25T03:09:53;98929.81;;;12.74;54.50
75656;BME280;64252;51.094;13.714;2024-03-25T03:12:20;98930.44;;;13.18;53.34
75656;BME280;64252;51.094;13.714;2024-03-25T03:14:45;98931.75;;;13.13;52.84
75656;BME280;64252;51.094;13.714;2024-03-25T03:17:11;98929.25;;;13.64;51.80
75656;BME280;64252;51.094;13.714;2024-03-25T03:19:36;98939.31;;;13.00;53.79
75656;BME280;64252;51.094;13.714;2024-03-25T03:22:04;98942.19;;;13.16;53.02
75656;BME280;64252;51.094;13.714;2024-03-25T03:24:30;98940.28;;;13.10;53.32
75656;BME280;64252;51.094;13.714;2024-03-25T03:26:55;98940.69;;;13.44;52.21
75656;BME280;64252;51.094;13.714;2024-03-25T03:29:21;98947.13;;;13.61;51.76
75656;BME280;64252;51.094;13.714;2024-03-25T03:31:46;98950.44;;;12.91;52.58
75656;BME280;64252;51.094;13.714;2024-03-25T03:34:12;98948.00;;;12.18;54.34
75656;BME280;64252;51.094;13.714;2024-03-25T03:36:37;98956.16;;;13.07;52.73
75656;BME280;64252;51.094;13.714;2024-03-25T03:39:03;98956.81;;;12.79;52.89
75656;BME280;64252;51.094;13.714;2024-03-25T03:41:28;98964.34;;;13.22;51.98
75656;BME280;64252;51.094;13.714;2024-03-25T03:43:54;98967.25;;;12.82;53.16
75656;BME280;64252;51.094;13.714;2024-03-25T03:46:19;98972.56;;;13.16;51.66
75656;BME280;64252;51.094;13.714;2024-03-25T03:48:45;98972.41;;;12.87;52.55
75656;BME280;64252;51.094;13.714;2024-03-25T03:51:10;98964.47;;;12.98;51.62
75656;BME280;64252;51.094;13.714;2024-03-25T03:53:36;98970.91;;;12.63;52.58
75656;BME280;64252;51.094;13.714;2024-03-25T03:56:03;98982.06;;;13.26;51.53
75656;BME280;64252;51.094;13.714;2024-03-25T03:58:32;98982.25;;;12.63;51.95
75656;BME280;64252;51.094;13.714;2024-03-25T04:00:58;98980.50;;;12.29;53.50
75656;BME280;64252;51.094;13.714;2024-03-25T04:03:24;98985.13;;;12.79;51.77
75656;BME280;64252;51.094;13.714;2024-03-25T04:05:49;98986.22;;;12.85;51.77
75656;BME280;64252;51.094;13.714;2024-03-25T04:08:16;98980.63;;;12.62;52.56
75656;BME280;64252;51.094;13.714;2024-03-25T04:10:43;98986.31;;;12.62;52.12
75656;BME280;64252;51.094;13.714;2024-03-25T04:13:09;98991.34;;;12.90;51.65
75656;BME280;64252;51.094;13.714;2024-03-25T04:15:35;98992.72;;;13.54;50.53
75656;BME280;64252;51.094;13.714;2024-03-25T04:18:04;98997.78;;;13.10;51.06
75656;BME280;64252;51.094;13.714;2024-03-25T04:20:36;99008.63;;;13.15;51.25
75656;BME280;64252;51.094;13.714;2024-03-25T04:23:02;99012.13;;;13.03;51.54
75656;BME280;64252;51.094;13.714;2024-03-25T04:25:27;99004.69;;;13.09;51.11
75656;BME280;64252;51.094;13.714;2024-03-25T04:27:53;99015.22;;;13.09;50.88
75656;BME280;64252;51.094;13.714;2024-03-25T04:30:18;99010.34;;;13.09;50.91
75656;BME280;64252;51.094;13.714;2024-03-25T04:32:44;99026.31;;;12.84;51.51
75656;BME280;64252;51.094;13.714;2024-03-25T04:35:10;99032.50;;;12.59;51.94
75656;BME280;64252;51.094;13.714;2024-03-25T04:37:35;99017.53;;;12.78;51.44
75656;BME280;64252;51.094;13.714;2024-03-25T04:40:02;99032.00;;;13.19;50.53
75656;BME280;64252;51.094;13.714;2024-03-25T04:42:28;99033.28;;;13.35;49.93
75656;BME280;64252;51.094;13.714;2024-03-25T04:44:53;99042.19;;;14.30;48.09
75656;BME280;64252;51.094;13.714;2024-03-25T04:47:19;99049.97;;;13.49;48.83
75656;BME280;64252;51.094;13.714;2024-03-25T04:49:45;99044.66;;;12.95;50.23
75656;BME280;64252;51.094;13.714;2024-03-25T04:52:12;99052.09;;;12.89;50.06
75656;BME280;64252;51.094;13.714;2024-03-25T04:54:48;99050.03;;;13.09;49.58
75656;BME280;64252;51.094;13.714;2024-03-25T04:57:14;99050.28;;;12.79;50.13
75656;BME280;64252;51.094;13.714;2024-03-25T04:59:39;99054.41;;;13.14;49.47
75656;BME280;64252;51.094;13.714;2024-03-25T05:02:05;99055.19;;;13.50;48.79
75656;BME280;64252;51.094;13.714;2024-03-25T05:04:30;99064.88;;;12.97;49.51
75656;BME280;64252;51.094;13.714;2024-03-25T05:06:56;99067.94;;;12.67;50.55
75656;BME280;64252;51.094;13.714;2024-03-25T05:09:24;99072.97;;;12.79;50.08
75656;BME280;64252;51.094;13.714;2024-03-25T05:11:50;99079.59;;;13.28;49.33
75656;BME280;64252;51.094;13.714;2024-03-25T05:14:15;99070.75;;;12.67;50.55
75656;BME280;64252;51.094;13.714;2024-03-25T05:16:41;99082.56;;;13.41;49.16
75656;BME280;64252;51.094;13.714;2024-03-25T05:19:07;99091.94;;;13.38;49.36
75656;BME280;64252;51.094;13.714;2024-03-25T05:21:33;99083.78;;;12.84;50.44
75656;BME280;64252;51.094;13.714;2024-03-25T05:23:58;99088.47;;;13.10;50.51
75656;BME280;64252;51.094;13.714;2024-03-25T05:26:24;99096.25;;;12.67;50.80
75656;BME280;64252;51.094;13.714;2024-03-25T05:28:54;99097.72;;;12.75;51.74
75656;BME280;64252;51.094;13.714;2024-03-25T05:31:20;99103.34;;;13.18;50.59
75656;BME280;64252;51.094;13.714;2024-03-25T05:33:45;99104.53;;;12.58;51.64
75656;BME280;64252;51.094;13.714;2024-03-25T05:36:12;99112.53;;;13.42;50.46
75656;BME280;64252;51.094;13.714;2024-03-25T05:38:37;99110.59;;;12.99;50.67
75656;BME280;64252;51.094;13.714;2024-03-25T05:41:06;99111.22;;;12.87;51.58
75656;BME280;64252;51.094;13.714;2024-03-25T05:43:31;99118.84;;;13.30;50.15
75656;BME280;64252;51.094;13.714;2024-03-25T05:45:57;99117.13;;;13.16;50.41
75656;BME280;64252;51.094;13.714;2024-03-25T05:48:26;99118.34;;;12.95;50.85
75656;BME280;64252;51.094;13.714;2024-03-25T05:53:24;99130.44;;;12.99;49.57
75656;BME280;64252;51.094;13.714;2024-03-25T05:55:49;99129.56;;;13.58;48.93
75656;BME280;64252;51.094;13.714;2024-03-25T05:58:15;99132.78;;;13.76;48.49
75656;BME280;64252;51.094;13.714;2024-03-25T06:00:41;99130.25;;;13.46;48.89
75656;BME280;64252;51.094;13.714;2024-03-25T06:03:06;99145.91;;;13.34;49.05
75656;BME280;64252;51.094;13.714;2024-03-25T06:05:32;99137.34;;;13.54;48.25
75656;BME280;64252;51.094;13.714;2024-03-25T06:07:57;99142.03;;;12.85;49.64
75656;BME280;64252;51.094;13.714;2024-03-25T06:10:23;99143.19;;;13.07;49.30
75656;BME280;64252;51.094;13.714;2024-03-25T06:12:48;99142.41;;;13.46;49.34
75656;BME280;64252;51.094;13.714;2024-03-25T06:15:14;99146.09;;;13.95;47.47
75656;BME280;64252;51.094;13.714;2024-03-25T06:17:39;99155.56;;;13.73;48.43
75656;BME280;64252;51.094;13.714;2024-03-25T06:20:05;99162.59;;;14.00;47.42
75656;BME280;64252;51.094;13.714;2024-03-25T06:22:31;99174.50;;;14.12;47.62
75656;BME280;64252;51.094;13.714;2024-03-25T06:24:56;99162.69;;;13.25;49.64
75656;BME280;64252;51.094;13.714;2024-03-25T06:27:22;99164.31;;;13.98;47.84
75656;BME280;64252;51.094;13.714;2024-03-25T06:29:47;99174.00;;;13.05;49.76
75656;BME280;64252;51.094;13.714;2024-03-25T06:32:13;99173.75;;;13.39;49.35
75656;BME280;64252;51.094;13.714;2024-03-25T06:34:57;99172.59;;;12.74;50.38
75656;BME280;64252;51.094;13.714;2024-03-25T06:37:26;99167.84;;;13.50;48.77
75656;BME280;64252;51.094;13.714;2024-03-25T06:39:51;99186.97;;;13.46;49.32
75656;BME280;64252;51.094;13.714;2024-03-25T06:42:18;99188.19;;;13.65;48.08
75656;BME280;64252;51.094;13.714;2024-03-25T06:44:44;99193.47;;;13.62;47.89
75656;BME280;64252;51.094;13.714;2024-03-25T06:47:16;99194.84;;;14.26;46.86
75656;BME280;64252;51.094;13.714;2024-03-25T06:49:41;99199.50;;;14.00;47.53
75656;BME280;64252;51.094;13.714;2024-03-25T06:52:07;99197.75;;;14.06;47.23
75656;BME280;64252;51.094;13.714;2024-03-25T06:54:32;99200.00;;;13.79;47.97
75656;BME280;64252;51.094;13.714;2024-03-25T06:56:58;99202.72;;;13.47;48.20
75656;BME280;64252;51.094;13.714;2024-03-25T06:59:23;99198.22;;;13.49;48.13
75656;BME280;64252;51.094;13.714;2024-03-25T07:01:49;99206.25;;;14.06;46.53
75656;BME280;64252;51.094;13.714;2024-03-25T07:04:14;99200.41;;;13.97;46.94
75656;BME280;64252;51.094;13.714;2024-03-25T07:06:40;99216.75;;;14.26;46.14
75656;BME280;64252;51.094;13.714;2024-03-25T07:09:06;99202.16;;;13.91;46.52
75656;BME280;64252;51.094;13.714;2024-03-25T07:11:31;99216.75;;;14.26;46.20
75656;BME280;64252;51.094;13.714;2024-03-25T07:13:57;99228.06;;;13.93;46.27
75656;BME280;64252;51.094;13.714;2024-03-25T07:16:23;99226.38;;;15.38;44.26
75656;BME280;64252;51.094;13.714;2024-03-25T07:18:48;99235.69;;;14.48;45.83
75656;BME280;64252;51.094;13.714;2024-03-25T07:21:14;99225.09;;;14.81;46.15
75656;BME280;64252;51.094;13.714;2024-03-25T07:23:39;99230.59;;;14.24;46.01
75656;BME280;64252;51.094;13.714;2024-03-25T07:26:05;99244.84;;;13.68;47.57
75656;BME280;64252;51.094;13.714;2024-03-25T07:28:32;99243.44;;;13.56;48.51
75656;BME280;64252;51.094;13.714;2024-03-25T07:30:57;99242.13;;;14.17;46.55
75656;BME280;64252;51.094;13.714;2024-03-25T07:33:23;99240.22;;;14.62;45.93
75656;BME280;64252;51.094;13.714;2024-03-25T07:35:49;99256.72;;;14.51;45.22
75656;BME280;64252;51.094;13.714;2024-03-25T07:38:14;99253.69;;;14.74;44.91
75656;BME280;64252;51.094;13.714;2024-03-25T07:40:40;99250.13;;;14.22;46.24
75656;BME280;64252;51.094;13.714;2024-03-25T07:43:05;99252.25;;;14.34;45.51
75656;BME280;64252;51.094;13.714;2024-03-25T07:45:31;99256.31;;;13.81;46.51
75656;BME280;64252;51.094;13.714;2024-03-25T07:47:56;99268.88;;;14.52;45.18
75656;BME280;64252;51.094;13.714;2024-03-25T07:50:22;99265.16;;;15.32;43.93
75656;BME280;64252;51.094;13.714;2024-03-25T07:52:48;99263.28;;;14.80;44.64
75656;BME280;64252;51.094;13.714;2024-03-25T07:55:15;99268.97;;;14.80;44.97
75656;BME280;64252;51.094;13.714;2024-03-25T07:57:40;99269.63;;;15.17;44.00
75656;BME280;64252;51.094;13.714;2024-03-25T08:00:06;99277.75;;;14.70;44.14
75656;BME280;64252;51.094;13.714;2024-03-25T08:02:43;99276.44;;;14.58;44.53
75656;BME280;64252;51.094;13.714;2024-03-25T08:05:09;99280.69;;;14.99;43.80
75656;BME280;64252;51.094;13.714;2024-03-25T08:07:35;99280.22;;;15.45;43.64
75656;BME280;64252;51.094;13.714;2024-03-25T08:13:43;99288.78;;;16.41;41.69
75656;BME280;64252;51.094;13.714;2024-03-25T08:16:22;99286.53;;;15.82;42.08
75656;BME280;64252;51.094;13.714;2024-03-25T08:19:08;99288.41;;;15.14;42.34
75656;BME280;64252;51.094;13.714;2024-03-25T08:22:05;99292.75;;;15.03;43.63
75656;BME280;64252;51.094;13.714;2024-03-25T08:24:48;99297.31;;;15.74;42.50
75656;BME280;64252;51.094;13.714;2024-03-25T08:27:54;99299.56;;;15.95;41.40
75656;BME280;64252;51.094;13.714;2024-03-25T08:30:22;99304.25;;;14.83;43.49
75656;BME280;64252;51.094;13.714;2024-03-25T08:33:11;99299.09;;;14.62;43.70
75656;BME280;64252;51.094;13.714;2024-03-25T08:35:43;99307.31;;;15.66;42.31
75656;BME280;64252;51.094;13.714;2024-03-25T08:38:08;99310.75;;;15.73;41.93
75656;BME280;64252;51.094;13.714;2024-03-25T08:40:34;99315.97;;;16.04;41.66
75656;BME280;64252;51.094;13.714;2024-03-25T08:42:59;99319.59;;;15.02;43.70
75656;BME280;64252;51.094;13.714;2024-03-25T08:45:24;99319.16;;;16.06;41.28
75656;BME280;64252;51.094;13.714;2024-03-25T08:47:50;99317.75;;;15.56;42.22
75656;BME280;64252;51.094;13.714;2024-03-25T08:50:15;99314.47;;;15.87;42.02
75656;BME280;64252;51.094;13.714;2024-03-25T08:52:41;99318.81;;;15.62;42.16
75656;BME280;64252;51.094;13.714;2024-03-25T08:55:16;99308.25;;;16.17;40.74
75656;BME280;64252;51.094;13.714;2024-03-25T08:57:41;99314.22;;;16.60;40.53
75656;BME280;64252;51.094;13.714;2024-03-25T09:00:08;99325.75;;;16.03;41.27
75656;BME280;64252;51.094;13.714;2024-03-25T09:02:38;99329.28;;;16.61;40.97
75656;BME280;64252;51.094;13.714;2024-03-25T09:05:05;99341.25;;;16.68;40.05
75656;BME280;64252;51.094;13.714;2024-03-25T09:07:32;99336.13;;;16.89;40.14
75656;BME280;64252;51.094;13.714;2024-03-25T09:21:11;99350.66;;;15.57;42.19
75656;BME280;64252;51.094;13.714;2024-03-25T09:23:42;99354.38;;;16.12;40.53
75656;BME280;64252;51.094;13.714;2024-03-25T09:26:07;99353.47;;;16.15;41.05
75656;BME280;64252;51.094;13.714;2024-03-25T09:28:33;99358.25;;;15.15;42.11
75656;BME280;64252;51.094;13.714;2024-03-25T09:30:58;99367.03;;;15.05;41.93
75656;BME280;64252;51.094;13.714;2024-03-25T09:33:24;99370.63;;;15.99;40.86
75656;BME280;64252;51.094;13.714;2024-03-25T09:35:51;99367.28;;;15.88;41.31
75656;BME280;64252;51.094;13.714;2024-03-25T09:38:16;99365.75;;;16.12;40.59
75656;BME280;64252;51.094;13.714;2024-03-25T09:40:44;99364.34;;;15.62;41.07
75656;BME280;64252;51.094;13.714;2024-03-25T09:43:32;99370.19;;;15.71;41.42
75656;BME280;64252;51.094;13.714;2024-03-25T09:45:58;99373.44;;;15.86;40.35
75656;BME280;64252;51.094;13.714;2024-03-25T09:48:28;99366.81;;;16.85;39.39
75656;BME280;64252;51.094;13.714;2024-03-25T09:50:55;99382.41;;;16.67;38.57
75656;BME280;64252;51.094;13.714;2024-03-25T09:53:21;99372.41;;;16.76;38.71
75656;BME280;64252;51.094;13.714;2024-03-25T09:55:47;99366.97;;;17.28;38.39
75656;BME280;64252;51.094;13.714;2024-03-25T09:58:14;99386.50;;;15.84;39.33
75656;BME280;64252;51.094;13.714;2024-03-25T10:00:41;99375.81;;;16.83;38.24
75656;BME280;64252;51.094;13.714;2024-03-25T10:03:06;99381.75;;;16.35;39.53
75656;BME280;64252;51.094;13.714;2024-03-25T10:05:32;99379.94;;;17.89;36.59
75656;BME280;64252;51.094;13.714;2024-03-25T10:07:58;99391.06;;;17.15;37.71
75656;BME280;64252;51.094;13.714;2024-03-25T10:10:24;99398.13;;;16.59;38.20
75656;BME280;64252;51.094;13.714;2024-03-25T10:12:49;99397.22;;;16.62;38.10
75656;BME280;64252;51.094;13.714;2024-03-25T10:15:18;99397.59;;;16.23;39.65
75656;BME280;64252;51.094;13.714;2024-03-25T10:17:44;99398.84;;;16.76;38.90
75656;BME280;64252;51.094;13.714;2024-03-25T10:20:16;99398.19;;;16.02;39.09
75656;BME280;64252;51.094;13.714;2024-03-25T10:22:42;99393.91;;;17.27;37.53
75656;BME280;64252;51.094;13.714;2024-03-25T10:25:26;99393.56;;;17.25;37.21
75656;BME280;64252;51.094;13.714;2024-03-25T10:27:55;99402.84;;;16.79;37.36
75656;BME280;64252;51.094;13.714;2024-03-25T10:30:21;99393.19;;;17.48;36.69
75656;BME280;64252;51.094;13.714;2024-03-25T10:32:58;99403.28;;;17.02;38.54
75656;BME280;64252;51.094;13.714;2024-03-25T10:35:26;99393.03;;;16.80;38.28
75656;BME280;64252;51.094;13.714;2024-03-25T10:37:54;99400.25;;;17.69;37.41
75656;BME280;64252;51.094;13.714;2024-03-25T10:40:23;99386.88;;;16.94;38.30
75656;BME280;64252;51.094;13.714;2024-03-25T10:42:51;99397.13;;;16.24;38.92
75656;BME280;64252;51.094;13.714;2024-03-25T10:45:17;99390.28;;;18.61;35.85
75656;BME280;64252;51.094;13.714;2024-03-25T10:47:43;99394.03;;;19.10;35.04
75656;BME280;64252;51.094;13.714;2024-03-25T10:50:09;99397.06;;;19.07;34.57
75656;BME280;64252;51.094;13.714;2024-03-25T10:52:38;99392.72;;;19.02;34.43
75656;BME280;64252;51.094;13.714;2024-03-25T10:55:06;99394.81;;;18.49;35.10
75656;BME280;64252;51.094;13.714;2024-03-25T10:57:33;99397.75;;;18.36;35.66
75656;BME280;64252;51.094;13.714;2024-03-25T11:00:01;99388.59;;;17.98;36.11
75656;BME280;64252;51.094;13.714;2024-03-25T11:02:30;99403.44;;;16.45;37.88
75656;BME280;64252;51.094;13.714;2024-03-25T11:04:56;99395.06;;;17.77;36.44
75656;BME280;64252;51.094;13.714;2024-03-25T11:07:30;99402.53;;;17.62;36.58
75656;BME280;64252;51.094;13.714;2024-03-25T11:10:05;99397.38;;;17.56;36.80
75656;BME280;64252;51.094;13.714;2024-03-25T11:12:40;99393.22;;;17.83;36.18
75656;BME280;64252;51.094;13.714;2024-03-25T11:15:07;99397.47;;;18.00;36.19
75656;BME280;64252;51.094;13.714;2024-03-25T11:17:33;99388.25;;;18.39;35.79
75656;BME280;64252;51.094;13.714;2024-03-25T11:20:12;99396.81;;;17.96;35.99
75656;BME280;64252;51.094;13.714;2024-03-25T11:22:52;99388.72;;;18.16;35.41
75656;BME280;64252;51.094;13.714;2024-03-25T11:25:20;99397.88;;;17.89;35.83
75656;BME280;64252;51.094;13.714;2024-03-25T11:27:46;99394.91;;;18.58;34.57
75656;BME280;64252;51.094;13.714;2024-03-25T11:30:15;99386.84;;;18.66;35.10
75656;BME280;64252;51.094;13.714;2024-03-25T11:32:45;99390.28;;;19.41;33.66
75656;BME280;64252;51.094;13.714;2024-03-25T11:35:11;99379.41;;;20.03;32.62
75656;BME280;64252;51.094;13.714;2024-03-25T11:37:41;99379.38;;;20.57;31.66
75656;BME280;64252;51.094;13.714;2024-03-25T11:40:11;99395.69;;;19.29;32.48
75656;BME280;64252;51.094;13.714;2024-03-25T11:42:42;99386.75;;;19.18;32.83
75656;BME280;64252;51.094;13.714;2024-03-25T11:45:19;99384.47;;;18.21;33.56
75656;BME280;64252;51.094;13.714;2024-03-25T11:47:46;99406.75;;;17.70;35.24
75656;BME280;64252;51.094;13.714;2024-03-25T11:50:17;99386.06;;;17.66;35.74
75656;BME280;64252;51.094;13.714;2024-03-25T11:52:45;99404.06;;;17.28;35.87
75656;BME280;64252;51.094;13.714;2024-03-25T11:55:16;99394.63;;;17.06;36.37
75656;BME280;64252;51.094;13.714;2024-03-25T11:57:42;99401.94;;;16.40;38.02
75656;BME280;64252;51.094;13.714;2024-03-25T12:00:08;99393.69;;;16.58;37.81
75656;BME280;64252;51.094;13.714;2024-03-25T12:02:44;99393.16;;;16.76;36.97
75656;BME280;64252;51.094;13.714;2024-03-25T12:05:12;99395.53;;;16.90;37.03
75656;BME280;64252;51.094;13.714;2024-03-25T12:07:38;99392.47;;;17.57;35.77
75656;BME280;64252;51.094;13.714;2024-03-25T12:10:05;99384.78;;;18.97;34.32
75656;BME280;64252;51.094;13.714;2024-03-25T12:12:49;99375.09;;;18.20;34.32
75656;BME280;64252;51.094;13.714;2024-03-25T12:15:20;99380.03;;;18.51;34.17
75656;BME280;64252;51.094;13.714;2024-03-25T12:17:45;99378.59;;;20.11;32.13
75656;BME280;64252;51.094;13.714;2024-03-25T12:20:11;99379.84;;;19.56;31.86
75656;BME280;64252;51.094;13.714;2024-03-25T12:22:37;99392.13;;;20.02;31.21
75656;BME280;64252;51.094;13.714;2024-03-25T12:25:05;99389.09;;;18.71;32.75
75656;BME280;64252;51.094;13.714;2024-03-25T12:27:34;99395.31;;;18.26;33.64
75656;BME280;64252;51.094;13.714;2024-03-25T12:30:07;99396.91;;;17.71;34.32
75656;BME280;64252;51.094;13.714;2024-03-25T12:32:37;99398.66;;;17.43;35.50
75656;BME280;64252;51.094;13.714;2024-03-25T12:35:03;99396.16;;;17.92;34.43
75656;BME280;64252;51.094;13.714;2024-03-25T12:37:32;99393.69;;;17.22;35.18
75656;BME280;64252;51.094;13.714;2024-03-25T12:39:58;99396.03;;;17.48;34.93
75656;BME280;64252;51.094;13.714;2024-03-25T12:42:26;99394.13;;;17.80;34.99
75656;BME280;64252;51.094;13.714;2024-03-25T12:44:58;99402.81;;;16.91;36.03
75656;BME280;64252;51.094;13.714;2024-03-25T12:47:23;99397.00;;;17.20;35.74
75656;BME280;64252;51.094;13.714;2024-03-25T12:49:49;99406.13;;;17.15;35.27
75656;BME280;64252;51.094;13.714;2024-03-25T12:52:19;99403.53;;;17.68;34.32
75656;BME280;64252;51.094;13.714;2024-03-25T12:54:44;99406.34;;;17.80;34.40
75656;BME280;64252;51.094;13.714;2024-03-25T12:57:13;99397.19;;;19.12;32.44
75656;BME280;64252;51.094;13.714;2024-03-25T12:59:39;99393.22;;;18.48;32.49
75656;BME280;64252;51.094;13.714;2024-03-25T13:02:04;99397.13;;;18.94;32.88
75656;BME280;64252;51.094;13.714;2024-03-25T13:04:30;99396.81;;;18.39;33.00
75656;BME280;64252;51.094;13.714;2024-03-25T13:06:56;99402.19;;;18.37;34.24